Dades meteomassalio
Diari Summary for Marc 1, 2018 Units:  English    Metric   Both
« Previous Day
Next Day »
Diari Semanal Mensual Anual Personalitzat
  Maxima: Minima: Mijana:
Temperatura: TemperatureC °F 7.4 °F 11.7 °F
Rosada: DewpointC °F 3.4 °F 7.5 °F
Humitat: Humidity % 54 % 76 %
Velocitat del vent: WindSpeedKMH mph 0.0 mph 11.9 mph
Racha vent: WindSpeedGustKMH mph - -
Vent:- - SW
Pressio: PressurehPa in 987.7 in -
Pluja: 0.0 in    
Historical Graphs
 
 
Tabular Data for Marc 1, 2018
Time Temperature Dew Point Pressure Wind Wind Speed Wind Gust Humidity Rainfall Rate (Hourly) solar Conditions
TemperatureC °F DewpointC °F PressurehPa in Calm     Humidity % HourlyPrecipMM in SolarRadiationWatts/m^2 W/m2 Conditions
00:03 8.7 °F 6.5 °F 996.8 in Calm     86 % 0.0 in 0.0 W/m2 RA
00:08 8.7 °F 6.6 °F 997.2 in Calm     87 % 0.0 in 0.0 W/m2 CLR
00:13 8.6 °F 6.6 °F 997.2 in Calm     87 % 0.0 in 0.0 W/m2 CLR
00:18 8.6 °F 6.5 °F 997.2 in Calm     87 % 0.0 in 0.0 W/m2 CLR
00:23 8.6 °F 6.5 °F 997.2 in Calm     87 % 0.0 in 0.0 W/m2 CLR
00:28 8.4 °F 6.4 °F 997.2 in Calm     87 % 0.0 in 0.0 W/m2 CLR
00:33 8.5 °F 6.6 °F 997.2 in Calm     88 % 0.0 in 0.0 W/m2 CLR
00:38 8.7 °F 6.8 °F 996.8 in Calm     88 % 0.0 in 0.0 W/m2 CLR
00:43 9.3 °F 7.3 °F 996.8 in Calm     87 % 0.0 in 0.0 W/m2 CLR
00:48 9.8 °F 7.6 °F 996.8 in Calm     86 % 0.0 in 0.0 W/m2 CLR
00:53 10.3 °F 7.7 °F 996.8 in Calm     84 % 0.0 in 0.0 W/m2 CLR
00:58 10.5 °F 7.6 °F 996.8 in Calm     82 % 0.0 in 0.0 W/m2 CLR
01:03 10.9 °F 7.8 °F 996.8 in Calm     81 % 0.0 in 0.0 W/m2 CLR
01:08 11.2 °F 7.7 °F 996.8 in Calm     79 % 0.0 in 0.0 W/m2 CLR
01:13 11.4 °F 7.9 °F 996.8 in Calm     79 % 0.0 in 0.0 W/m2 CLR
01:18 11.3 °F 7.4 °F 996.8 in Calm     77 % 0.0 in 0.0 W/m2 CLR
01:23 11.0 °F 7.5 °F 996.8 in Calm     79 % 0.0 in 0.0 W/m2 CLR
01:28 10.9 °F 7.6 °F 996.8 in Calm     80 % 0.0 in 0.0 W/m2 CLR
01:33 10.9 °F 7.4 °F 996.8 in Calm     79 % 0.0 in 0.0 W/m2 CLR
01:38 11.1 °F 7.4 °F 996.8 in SW 3.7 mph 3.7 mph 78 % 0.0 in 0.0 W/m2 CLR
01:43 10.7 °F 7.2 °F 996.5 in Calm     79 % 0.0 in 0.0 W/m2 CLR
01:48 10.6 °F 7.2 °F 996.8 in Calm     80 % 0.0 in 0.0 W/m2 CLR
01:53 10.6 °F 7.3 °F 996.8 in ENE 6.4 mph 6.4 mph 80 % 0.0 in 0.0 W/m2 CLR
01:58 9.9 °F 6.7 °F 996.8 in East 7.4 mph   80 % 0.0 in 0.0 W/m2 CLR
02:03 9.6 °F 6.6 °F 996.8 in Calm     82 % 0.0 in 0.0 W/m2 CLR
02:08 9.2 °F 6.7 °F 996.8 in Calm     84 % 0.0 in 0.0 W/m2 CLR
02:13 9.0 °F 6.6 °F 997.2 in Calm     85 % 0.0 in 0.0 W/m2 CLR
02:18 9.0 °F 6.8 °F 996.8 in Calm     86 % 0.0 in 0.0 W/m2 CLR
02:23 8.9 °F 6.7 °F 996.8 in Calm     86 % 0.0 in 0.0 W/m2 CLR
02:28 8.9 °F 6.7 °F 996.8 in Calm     86 % 0.0 in 0.0 W/m2 CLR
02:33 8.7 °F 6.5 °F 996.8 in Calm     86 % 0.0 in 0.0 W/m2 CLR
02:38 8.8 °F 6.8 °F 996.8 in Calm     87 % 0.0 in 0.0 W/m2 CLR
02:43 9.2 °F 7.1 °F 996.8 in NNE 5.6 mph 5.6 mph 87 % 0.0 in 0.0 W/m2 CLR
02:48 9.4 °F 7.1 °F 996.8 in Calm     85 % 0.0 in 0.0 W/m2 CLR
02:53 9.3 °F 6.9 °F 996.8 in Calm     85 % 0.0 in 0.0 W/m2 CLR
02:58 9.1 °F 6.7 °F 996.8 in Calm     85 % 0.0 in 0.0 W/m2 CLR
03:03 8.9 °F 6.6 °F 996.5 in Calm     85 % 0.0 in 0.0 W/m2 CLR
03:08 8.7 °F 6.4 °F 996.5 in Calm     86 % 0.0 in 0.0 W/m2 CLR
03:13 8.7 °F 6.6 °F 996.5 in Calm     87 % 0.0 in 0.0 W/m2 CLR
03:18 8.7 °F 6.6 °F 996.8 in East 7.4 mph 7.4 mph 87 % 0.0 in 0.0 W/m2 CLR
03:23 8.4 °F 6.3 °F 996.8 in East 5.6 mph 5.6 mph 87 % 0.0 in 0.0 W/m2 CLR
03:28 8.3 °F 6.4 °F 996.5 in Calm     88 % 0.0 in 0.0 W/m2 CLR
03:33 8.4 °F 6.7 °F 996.5 in Calm     89 % 0.0 in 0.0 W/m2 CLR
03:38 8.6 °F 6.7 °F 996.5 in Calm     88 % 0.0 in 0.0 W/m2 CLR
03:43 8.8 °F 6.9 °F 996.5 in Calm     88 % 0.0 in 0.0 W/m2 CLR
03:48 9.1 °F 7.1 °F 996.5 in Calm     87 % 0.0 in 0.0 W/m2 CLR
03:53 9.2 °F 7.0 °F 996.2 in Calm     86 % 0.0 in 0.0 W/m2 CLR
03:58 9.4 °F 7.2 °F 996.2 in Calm     86 % 0.0 in 0.0 W/m2 CLR
03:59 9.4 °F 7.2 °F 996.2 in Calm     86 % 0.0 in 0.0 W/m2 CLR
04:04 9.6 °F 7.2 °F 996.5 in Calm     85 % 0.0 in 0.0 W/m2 CLR
04:09 9.5 °F 7.1 °F 996.2 in Calm   0.8 mph 85 % 0.0 in 0.0 W/m2 CLR
04:14 9.4 °F 7.1 °F 996.2 in Calm     85 % 0.0 in 0.0 W/m2 CLR
04:19 9.3 °F 6.9 °F 996.2 in Calm     85 % 0.0 in 0.0 W/m2 CLR
04:24 9.3 °F 6.9 °F 996.2 in Calm     85 % 0.0 in 0.0 W/m2 CLR
04:29 9.4 °F 7.0 °F 996.2 in Calm     85 % 0.0 in 0.0 W/m2 CLR
04:34 9.4 °F 7.0 °F 996.2 in Calm     85 % 0.0 in 0.0 W/m2 CLR
04:39 9.3 °F 6.9 °F 996.2 in Calm     85 % 0.0 in 0.0 W/m2 CLR
04:44 9.3 °F 6.9 °F 996.2 in Calm     85 % 0.0 in 0.0 W/m2 CLR
04:49 9.3 °F 6.9 °F 996.2 in South 11.1 mph 11.1 mph 85 % 0.0 in 0.0 W/m2 CLR
04:54 9.2 °F 6.8 °F 996.2 in Calm     85 % 0.0 in 0.0 W/m2 CLR
04:59 9.1 °F 6.7 °F 996.2 in Calm     85 % 0.0 in 0.0 W/m2 CLR
05:04 9.0 °F 6.8 °F 996.2 in Calm     86 % 0.0 in 0.0 W/m2 CLR
05:09 9.0 °F 6.8 °F 996.2 in Calm     86 % 0.0 in 0.0 W/m2 CLR
05:14 9.1 °F 6.8 °F 996.2 in Calm     86 % 0.0 in 0.0 W/m2 CLR
05:20 9.1 °F 6.9 °F 996.2 in SSW 4.8 mph 4.8 mph 86 % 0.0 in 0.0 W/m2 CLR
05:25 9.2 °F 7.0 °F 995.8 in South 5.6 mph 5.6 mph 86 % 0.0 in 0.0 W/m2 CLR
05:30 9.3 °F 7.1 °F 995.8 in South 5.6 mph 5.6 mph 86 % 0.0 in 0.0 W/m2 CLR
05:35 9.2 °F 7.0 °F 995.8 in Calm     86 % 0.0 in 0.0 W/m2 CLR
05:40 9.2 °F 6.8 °F 995.8 in Calm     85 % 0.0 in 0.0 W/m2 CLR
05:45 9.2 °F 6.8 °F 995.8 in Calm     85 % 0.0 in 0.0 W/m2 CLR
05:50 9.1 °F 6.7 °F 995.8 in Calm     85 % 0.0 in 0.0 W/m2 CLR
05:55 9.1 °F 6.7 °F 995.8 in East 3.7 mph   85 % 0.0 in 0.0 W/m2 CLR
06:00 8.9 °F 6.7 °F 995.8 in Calm     86 % 0.0 in 0.0 W/m2 CLR
06:05 8.9 °F 6.7 °F 995.8 in Calm     86 % 0.0 in 0.0 W/m2 CLR
06:10 8.8 °F 6.4 °F 995.8 in Calm     85 % 0.0 in 0.0 W/m2 CLR
06:15 8.6 °F 6.3 °F 995.5 in Calm     86 % 0.0 in 0.0 W/m2 CLR
06:20 8.3 °F 6.3 °F 995.8 in Calm     87 % 0.0 in 0.0 W/m2 CLR
06:25 8.2 °F 6.1 °F 995.8 in Calm     87 % 0.0 in 0.0 W/m2 CLR
06:30 8.0 °F 6.1 °F 995.8 in Calm     88 % 0.0 in 0.0 W/m2 CLR
06:35 8.1 °F 6.3 °F 995.8 in Calm     89 % 0.0 in 0.0 W/m2 CLR
06:40 8.1 °F 6.4 °F 995.8 in Calm     89 % 0.0 in 0.0 W/m2 CLR
06:45 8.1 °F 6.2 °F 995.8 in Calm     88 % 0.0 in 0.0 W/m2 CLR
06:50 8.1 °F 6.2 °F 995.5 in Calm     88 % 0.0 in 0.0 W/m2 CLR
06:55 8.1 °F 6.2 °F 995.5 in Calm     88 % 0.0 in 0.0 W/m2 CLR
07:00 8.1 °F 6.3 °F 995.5 in Calm     89 % 0.0 in 0.0 W/m2 CLR
07:05 8.1 °F 6.3 °F 995.5 in Calm     89 % 0.0 in 0.0 W/m2 CLR
07:10 8.0 °F 6.3 °F 995.1 in Calm     89 % 0.0 in 0.0 W/m2 CLR
07:15 8.1 °F 6.3 °F 995.1 in Calm     89 % 0.0 in 0.0 W/m2 CLR
07:20 8.0 °F 6.3 °F 995.1 in Calm     89 % 0.0 in 0.0 W/m2 CLR
07:25 7.9 °F 6.2 °F 995.1 in Calm     89 % 0.0 in 0.0 W/m2 OVC
07:30 7.9 °F 6.2 °F 995.1 in Calm     89 % 0.0 in 0.0 W/m2 OVC
07:35 7.8 °F 6.1 °F 995.1 in Calm     89 % 0.0 in 7.0 W/m2 OVC
07:40 7.8 °F 6.1 °F 995.1 in Calm     89 % 0.0 in 16.0 W/m2 BKN
07:45 7.8 °F 6.1 °F 995.1 in Calm     89 % 0.0 in 26.0 W/m2 BKN
07:50 7.7 °F 5.9 °F 995.1 in Calm     89 % 0.0 in 28.0 W/m2 BKN
07:55 7.5 °F 5.8 °F 995.1 in Calm     89 % 0.0 in 35.0 W/m2 BKN
08:00 7.4 °F 5.7 °F 995.1 in Calm     89 % 0.0 in 42.0 W/m2 BKN
08:05 7.4 °F 5.7 °F 995.1 in Calm     89 % 0.0 in 42.0 W/m2 BKN
08:10 7.5 °F 5.9 °F 995.1 in Calm     90 % 0.0 in 46.0 W/m2 SCT
08:15 7.6 °F 6.0 °F 995.1 in Calm     90 % 0.0 in 51.0 W/m2 SCT
08:20 7.6 °F 6.0 °F 994.8 in Calm     90 % 0.0 in 51.0 W/m2 SCT
08:25 7.7 °F 6.1 °F 994.8 in Calm     90 % 0.0 in 51.0 W/m2 SCT
08:30 7.8 °F 6.3 °F 994.8 in NW 1.9 mph   90 % 0.0 in 53.0 W/m2 SCT
08:35 7.9 °F 6.3 °F 994.8 in Calm     90 % 0.0 in 60.0 W/m2 SCT
08:40 8.1 °F 6.6 °F 994.8 in Calm     90 % 0.0 in 100.0 W/m2 SCT
08:45 8.3 °F 6.6 °F 994.8 in Calm     89 % 0.0 in 65.0 W/m2 FEW
08:50 8.5 °F 6.8 °F 994.8 in SSW 3.7 mph 3.7 mph 89 % 0.0 in 79.0 W/m2 FEW
08:55 8.7 °F 6.8 °F 994.5 in ENE 4.8 mph 4.8 mph 88 % 0.0 in 104.0 W/m2 FEW
09:00 8.9 °F 6.8 °F 994.5 in Calm     87 % 0.0 in 141.0 W/m2 CLR
09:05 9.3 °F 7.3 °F 994.5 in Calm     87 % 0.0 in 155.0 W/m2 CLR
09:10 9.7 °F 7.3 °F 994.5 in Calm     85 % 0.0 in 163.0 W/m2 CLR
09:16 10.1 °F 7.6 °F 994.5 in Calm     84 % 0.0 in 195.0 W/m2 CLR
09:17 10.2 °F 7.6 °F 994.5 in Calm     84 % 0.0 in 206.0 W/m2 CLR
09:22 10.3 °F 7.7 °F 994.5 in Calm     84 % 0.0 in 207.0 W/m2 CLR
09:27 10.3 °F 7.7 °F 994.1 in Calm     84 % 0.0 in 186.0 W/m2 CLR
09:31 10.4 °F 7.8 °F 994.1 in Calm     84 % 0.0 in 130.0 W/m2 CLR
09:36 10.4 °F 7.7 °F 994.1 in Calm     83 % 0.0 in 98.0 W/m2 CLR
09:41 10.5 °F 7.7 °F 994.1 in Calm     83 % 0.0 in 91.0 W/m2 CLR
09:46 10.5 °F 7.7 °F 994.1 in Calm     83 % 0.0 in 91.0 W/m2 CLR
09:48 10.5 °F 7.9 °F 993.8 in Calm     84 % 0.0 in 93.0 W/m2 CLR
09:53 10.5 °F 7.9 °F 993.8 in Calm     84 % 0.0 in 97.0 W/m2 CLR
09:58 10.5 °F 7.9 °F 993.8 in Calm     84 % 0.0 in 98.0 W/m2 CLR
10:03 10.6 °F 8.0 °F 993.8 in Calm     84 % 0.0 in 104.0 W/m2 CLR
10:08 10.7 °F 7.9 °F 993.8 in NE 1.9 mph   83 % 0.0 in 109.0 W/m2 CLR
10:13 10.7 °F 7.9 °F 993.8 in Calm     83 % 0.0 in 114.0 W/m2 CLR
10:18 10.8 °F 8.2 °F 993.8 in Calm     84 % 0.0 in 125.0 W/m2 CLR
10:21 10.9 °F 8.3 °F 993.8 in Calm     84 % 0.0 in 132.0 W/m2 CLR
10:26 11.0 °F 8.4 °F 993.8 in Calm     84 % 0.0 in 146.0 W/m2 CLR
10:31 11.1 °F 8.3 °F 993.8 in Calm     83 % 0.0 in 171.0 W/m2 CLR
10:36 11.3 °F 8.5 °F 993.5 in Calm     83 % 0.0 in 243.0 W/m2 CLR
10:39 11.4 °F 8.7 °F 993.8 in ENE 5.6 mph 5.6 mph 83 % 0.0 in 262.0 W/m2 CLR
10:41 11.6 °F 8.8 °F 993.8 in ENE 3.7 mph   83 % 0.0 in 265.0 W/m2 CLR
10:46 11.8 °F 8.8 °F 993.8 in Calm     82 % 0.0 in 272.0 W/m2 CLR
10:51 12.1 °F 9.1 °F 993.5 in Calm     82 % 0.0 in 462.0 W/m2 CLR
10:56 12.4 °F 9.4 °F 993.5 in Calm     82 % 0.0 in 401.0 W/m2 CLR
11:01 12.9 °F 9.5 °F 993.1 in Calm     80 % 0.0 in 308.0 W/m2 CLR
11:06 13.3 °F 9.6 °F 993.1 in SSE 5.6 mph 5.6 mph 78 % 0.0 in 459.0 W/m2 CLR
11:11 14.1 °F 9.5 °F 993.1 in ESE 9.3 mph 9.3 mph 74 % 0.0 in 512.0 W/m2 CLR
11:16 14.6 °F 9.6 °F 992.8 in South 14.8 mph 14.8 mph 72 % 0.0 in 320.0 W/m2 CLR
11:21 14.9 °F 9.5 °F 992.8 in ESE 14.8 mph 14.8 mph 70 % 0.0 in 308.0 W/m2 CLR
11:26 15.1 °F 9.4 °F 992.8 in ESE 13.0 mph 13.0 mph 69 % 0.0 in 399.0 W/m2 CLR
11:31 15.2 °F 9.6 °F 992.8 in SSW 16.7 mph 16.7 mph 69 % 0.0 in 309.0 W/m2 CLR
11:36 15.3 °F 9.2 °F 992.8 in SSW 18.5 mph 18.5 mph 67 % 0.0 in 244.0 W/m2 CLR
11:41 15.1 °F 9.2 °F 992.8 in SSE 16.7 mph 16.7 mph 68 % 0.0 in 287.0 W/m2 CLR
11:46 15.1 °F 9.6 °F 992.4 in SSE 13.0 mph 13.0 mph 70 % 0.0 in 320.0 W/m2 CLR
11:51 15.2 °F 9.9 °F 992.4 in ESE 9.7 mph 9.7 mph 71 % 0.0 in 388.0 W/m2 CLR
11:56 15.7 °F 8.4 °F 992.1 in SW 27.8 mph 27.8 mph 62 % 0.0 in 485.0 W/m2 CLR
12:01 16.7 °F 8.9 °F 992.1 in WSW 29.6 mph 29.6 mph 60 % 0.0 in 729.0 W/m2 CLR
12:06 17.1 °F 8.4 °F 992.1 in ESE 25.9 mph 25.9 mph 57 % 0.0 in 446.0 W/m2 CLR
12:11 17.4 °F 8.3 °F 991.8 in West 27.8 mph 27.8 mph 55 % 0.0 in 705.0 W/m2 CLR
12:16 17.6 °F 8.7 °F 991.8 in ESE 16.7 mph 16.7 mph 56 % 0.0 in 635.0 W/m2 CLR
12:21 17.3 °F 8.7 °F 991.8 in ESE 13.0 mph 13.0 mph 57 % 0.0 in 253.0 W/m2 CLR
12:26 16.7 °F 9.7 °F 991.8 in ESE 17.7 mph 17.7 mph 63 % 0.0 in 230.0 W/m2 CLR
12:31 15.7 °F 9.3 °F 991.8 in SSW 16.7 mph 16.7 mph 66 % 0.0 in 258.0 W/m2 CLR
12:36 15.4 °F 9.5 °F 991.8 in South 14.8 mph 14.8 mph 68 % 0.0 in 227.0 W/m2 CLR
12:41 15.0 °F 9.6 °F 991.8 in ESE 18.5 mph 18.5 mph 70 % 0.0 in 244.0 W/m2 CLR
12:46 14.3 °F 9.3 °F 991.8 in South 18.5 mph 18.5 mph 72 % 0.0 in 223.0 W/m2 CLR
12:51 14.1 °F 9.3 °F 991.8 in ESE 13.0 mph 13.0 mph 73 % 0.0 in 185.0 W/m2 CLR
12:56 13.8 °F 9.3 °F 991.8 in SSE 14.8 mph 14.8 mph 74 % 0.0 in 179.0 W/m2 CLR
13:01 13.7 °F 9.4 °F 991.8 in ESE 14.8 mph 14.8 mph 75 % 0.0 in 174.0 W/m2 CLR
13:06 13.4 °F 9.1 °F 991.8 in SW 18.5 mph 18.5 mph 75 % 0.0 in 162.0 W/m2 CLR
13:11 13.2 °F 8.9 °F 991.8 in SW 18.5 mph 18.5 mph 75 % 0.0 in 141.0 W/m2 CLR
13:16 12.9 °F 8.8 °F 991.8 in ESE 20.4 mph 20.4 mph 76 % 0.0 in 120.0 W/m2 CLR
13:22 12.6 °F 8.9 °F 991.4 in South 13.0 mph 13.0 mph 78 % 0.0 in 102.0 W/m2 CLR
13:27 12.4 °F 8.7 °F 991.4 in South 18.5 mph 18.5 mph 78 % 0.0 in 114.0 W/m2 CLR
13:32 12.5 °F 8.8 °F 991.1 in South 7.4 mph 7.4 mph 78 % 0.0 in 107.0 W/m2 CLR
13:37 12.7 °F 8.9 °F 991.1 in SSE 5.6 mph 5.6 mph 78 % 0.0 in 97.0 W/m2 CLR
13:42 13.0 °F 8.7 °F 991.1 in WSW 17.7 mph 17.7 mph 75 % 0.0 in 91.0 W/m2 CLR
13:47 14.7 °F 8.2 °F 991.1 in SW 24.1 mph 24.1 mph 65 % 0.0 in 97.0 W/m2 CLR
13:52 15.6 °F 8.3 °F 990.7 in ESE 25.9 mph 25.9 mph 62 % 0.0 in 100.0 W/m2 CLR
13:57 14.1 °F 8.7 °F 990.7 in ESE 13.0 mph 13.0 mph 70 % 0.0 in 91.0 W/m2 CLR
14:02 13.4 °F 8.7 °F 990.7 in SSE 14.8 mph 14.8 mph 73 % 0.0 in 104.0 W/m2 CLR
14:07 12.8 °F 8.7 °F 990.7 in ESE 20.4 mph 20.4 mph 76 % 0.0 in 130.0 W/m2 CLR
14:12 12.5 °F 8.6 °F 990.7 in ESE 19.3 mph 19.3 mph 77 % 0.0 in 151.0 W/m2 CLR
14:17 12.5 °F 8.6 °F 990.7 in ESE 18.5 mph 18.5 mph 77 % 0.0 in 137.0 W/m2 CLR
14:22 12.6 °F 8.5 °F 990.4 in SW 14.8 mph 14.8 mph 76 % 0.0 in 123.0 W/m2 CLR
14:27 13.1 °F 8.5 °F 990.4 in ESE 9.3 mph 9.3 mph 74 % 0.0 in 121.0 W/m2 CLR
14:32 12.9 °F 8.4 °F 990.4 in ESE 20.4 mph 20.4 mph 74 % 0.0 in 128.0 W/m2 CLR
14:37 12.2 °F 8.3 °F 990.4 in ESE 13.0 mph 13.0 mph 77 % 0.0 in 178.0 W/m2 CLR
14:42 11.9 °F 8.3 °F 990.4 in ESE 18.5 mph 18.5 mph 79 % 0.0 in 243.0 W/m2 CLR
14:47 11.7 °F 8.3 °F 990.4 in ESE 14.8 mph 14.8 mph 80 % 0.0 in 267.0 W/m2 CLR
14:52 11.8 °F 8.4 °F 990.1 in ESE 14.8 mph 14.8 mph 80 % 0.0 in 264.0 W/m2 CLR
14:57 11.9 °F 8.6 °F 990.1 in SSW 13.0 mph 13.0 mph 80 % 0.0 in 276.0 W/m2 CLR
15:02 12.3 °F 8.8 °F 990.1 in SSW 16.7 mph 16.7 mph 79 % 0.0 in 276.0 W/m2 CLR
15:07 12.7 °F 8.9 °F 989.7 in ESE 9.3 mph 9.3 mph 78 % 0.0 in 248.0 W/m2 CLR
15:12 13.0 °F 9.3 °F 989.7 in ESE 5.6 mph 5.6 mph 78 % 0.0 in 239.0 W/m2 CLR
15:17 13.5 °F 9.2 °F 989.7 in ESE 27.8 mph 27.8 mph 75 % 0.0 in 250.0 W/m2 CLR
15:22 13.4 °F 8.9 °F 989.7 in ESE 18.5 mph 18.5 mph 74 % 0.0 in 207.0 W/m2 CLR
15:27 13.3 °F 9.1 °F 989.7 in ENE 16.7 mph 16.7 mph 76 % 0.0 in 171.0 W/m2 CLR
15:32 13.4 °F 9.3 °F 989.4 in North 18.5 mph 18.5 mph 76 % 0.0 in 158.0 W/m2 CLR
15:37 14.1 °F 9.3 °F 989.1 in West 14.8 mph 14.8 mph 73 % 0.0 in 165.0 W/m2 CLR
15:42 15.0 °F 9.3 °F 989.1 in WSW 5.6 mph 5.6 mph 69 % 0.0 in 176.0 W/m2 CLR
15:47 15.6 °F 9.2 °F 989.4 in WSW 20.4 mph 20.4 mph 66 % 0.0 in 197.0 W/m2 CLR
15:52 15.8 °F 9.0 °F 989.1 in SW 31.5 mph 31.5 mph 64 % 0.0 in 244.0 W/m2 CLR
15:57 15.8 °F 9.0 °F 988.7 in WSW 33.3 mph 33.3 mph 64 % 0.0 in 229.0 W/m2 CLR
16:02 15.8 °F 9.4 °F 989.1 in ESE 14.8 mph 14.8 mph 66 % 0.0 in 178.0 W/m2 CLR
16:07 15.7 °F 9.3 °F 988.7 in SW 18.5 mph 18.5 mph 66 % 0.0 in 174.0 W/m2 CLR
16:12 15.6 °F 9.2 °F 989.1 in West 11.1 mph 11.1 mph 66 % 0.0 in 142.0 W/m2 CLR
16:17 15.4 °F 9.3 °F 989.1 in SW 19.3 mph 19.3 mph 67 % 0.0 in 132.0 W/m2 CLR
16:22 15.2 °F 9.1 °F 989.1 in SW 25.9 mph 25.9 mph 67 % 0.0 in 104.0 W/m2 CLR
16:27 14.9 °F 9.1 °F 988.7 in SSW 25.7 mph 25.7 mph 68 % 0.0 in 111.0 W/m2 CLR
16:32 14.8 °F 9.2 °F 988.7 in WSW 24.1 mph 24.1 mph 69 % 0.0 in 146.0 W/m2 CLR
16:37 14.7 °F 9.1 °F 988.4 in SW 24.1 mph 24.1 mph 69 % 0.0 in 142.0 W/m2 CLR
16:42 14.6 °F 8.9 °F 988.7 in WSW 24.1 mph 24.1 mph 69 % 0.0 in 127.0 W/m2 CLR
16:47 14.6 °F 8.9 °F 988.7 in WSW 24.1 mph 24.1 mph 69 % 0.0 in 141.0 W/m2 CLR
16:52 14.6 °F 8.9 °F 988.7 in WSW 20.4 mph 20.4 mph 69 % 0.0 in 141.0 W/m2 CLR
16:57 14.6 °F 8.9 °F 988.4 in SW 31.5 mph 31.5 mph 69 % 0.0 in 132.0 W/m2 CLR
17:02 14.6 °F 8.9 °F 988.4 in WSW 27.4 mph 27.4 mph 69 % 0.0 in 128.0 W/m2 CLR
17:07 14.4 °F 8.8 °F 988.4 in WSW 32.2 mph 32.2 mph 69 % 0.0 in 107.0 W/m2 CLR
17:12 14.3 °F 8.7 °F 988.4 in SW 27.8 mph 27.8 mph 69 % 0.0 in 104.0 W/m2 CLR
17:17 14.2 °F 8.6 °F 988.4 in WSW 27.8 mph 27.8 mph 69 % 0.0 in 95.0 W/m2 CLR
17:22 14.2 °F 8.8 °F 988.0 in West 35.2 mph 35.2 mph 70 % 0.0 in 83.0 W/m2 CLR
17:27 14.1 °F 8.7 °F 988.0 in WSW 35.4 mph 35.4 mph 70 % 0.0 in 67.0 W/m2 FEW
17:32 14.0 °F 8.6 °F 988.0 in ESE 44.4 mph 44.4 mph 70 % 0.0 in 58.0 W/m2 FEW
17:37 13.9 °F 8.6 °F 988.0 in WSW 29.6 mph 29.6 mph 70 % 0.0 in 44.0 W/m2 SCT
17:42 13.9 °F 8.6 °F 988.0 in WSW 33.3 mph 33.3 mph 70 % 0.0 in 33.0 W/m2 SCT
17:47 13.9 °F 8.6 °F 988.0 in SW 33.3 mph 33.3 mph 70 % 0.0 in 32.0 W/m2 BKN
17:52 13.8 °F 8.6 °F 987.7 in SW 24.1 mph 24.1 mph 71 % 0.0 in 83.0 W/m2 SCT
17:57 13.7 °F 8.5 °F 987.7 in West 33.3 mph 33.3 mph 71 % 0.0 in 42.0 W/m2 SCT
18:02 13.6 °F 8.7 °F 987.7 in WSW 24.1 mph 24.1 mph 72 % 0.0 in 37.0 W/m2 BKN
18:07 13.6 °F 8.6 °F 987.7 in SW 27.4 mph 27.4 mph 72 % 0.0 in 35.0 W/m2 BKN
18:12 13.6 °F 8.4 °F 987.7 in West 33.3 mph 33.3 mph 71 % 0.0 in 35.0 W/m2 BKN
18:17 13.7 °F 8.5 °F 988.0 in WSW 22.2 mph 22.2 mph 71 % 0.0 in 39.0 W/m2 BKN
18:22 13.7 °F 8.6 °F 988.0 in WSW 31.5 mph 31.5 mph 71 % 0.0 in 37.0 W/m2 BKN
18:27 13.8 °F 8.7 °F 988.0 in WSW 24.1 mph 24.1 mph 71 % 0.0 in 26.0 W/m2 BKN
18:32 13.8 °F 8.7 °F 988.0 in WSW 27.8 mph 27.8 mph 71 % 0.0 in 14.0 W/m2 BKN
18:37 13.9 °F 8.7 °F 988.0 in WSW 19.3 mph 19.3 mph 71 % 0.0 in 14.0 W/m2 BKN
18:42 13.9 °F 8.6 °F 988.0 in WSW 18.5 mph 18.5 mph 70 % 0.0 in 11.0 W/m2 BKN
18:47 13.9 °F 8.6 °F 988.4 in WSW 20.4 mph 20.4 mph 70 % 0.0 in 0.0 W/m2 OVC
18:52 13.9 °F 8.6 °F 988.4 in WSW 20.4 mph 20.4 mph 70 % 0.0 in 0.0 W/m2 OVC
18:57 14.0 °F 8.6 °F 988.4 in WSW 24.1 mph 24.1 mph 70 % 0.0 in 0.0 W/m2 OVC
19:02 14.0 °F 8.6 °F 988.4 in WSW 18.5 mph 18.5 mph 70 % 0.0 in 0.0 W/m2 CLR
19:07 14.0 °F 8.6 °F 988.4 in WSW 20.4 mph 20.4 mph 70 % 0.0 in 0.0 W/m2 CLR
19:12 14.1 °F 8.5 °F 988.4 in West 27.8 mph 27.8 mph 69 % 0.0 in 0.0 W/m2 CLR
19:17 14.1 °F 8.7 °F 988.4 in WSW 22.2 mph 22.2 mph 70 % 0.0 in 0.0 W/m2 CLR
19:22 14.1 °F 8.7 °F 988.4 in WSW 25.9 mph 25.9 mph 70 % 0.0 in 0.0 W/m2 CLR
19:27 14.1 °F 8.7 °F 988.4 in SW 31.5 mph 31.5 mph 70 % 0.0 in 0.0 W/m2 CLR
19:32 14.2 °F 8.6 °F 988.4 in WSW 31.5 mph 31.5 mph 69 % 0.0 in 0.0 W/m2 CLR
19:37 14.2 °F 8.6 °F 988.4 in SW 29.0 mph 29.0 mph 69 % 0.0 in 0.0 W/m2 CLR
19:42 14.1 °F 8.5 °F 988.4 in ESE 18.5 mph 18.5 mph 69 % 0.0 in 0.0 W/m2 CLR
19:47 13.9 °F 8.6 °F 988.0 in SW 20.4 mph 20.4 mph 70 % 0.0 in 0.0 W/m2 CLR
19:52 13.9 °F 8.6 °F 988.4 in SW 20.4 mph 20.4 mph 70 % 0.0 in 0.0 W/m2 CLR
19:57 13.8 °F 8.4 °F 988.4 in WSW 20.4 mph 20.4 mph 70 % 0.0 in 0.0 W/m2 CLR
20:02 13.7 °F 8.5 °F 988.4 in WSW 14.8 mph 14.8 mph 71 % 0.0 in 0.0 W/m2 CLR
20:07 13.6 °F 8.4 °F 988.4 in WSW 16.7 mph 16.7 mph 71 % 0.0 in 0.0 W/m2 CLR
20:12 13.6 °F 8.7 °F 987.7 in ESE 18.5 mph 18.5 mph 72 % 0.0 in 0.0 W/m2 CLR
20:17 13.4 °F 8.5 °F 987.7 in WSW 14.5 mph 14.5 mph 72 % 0.0 in 0.0 W/m2 CLR
20:22 13.5 °F 8.3 °F 987.7 in WSW 18.5 mph 18.5 mph 71 % 0.0 in 0.0 W/m2 CLR
20:27 13.6 °F 8.4 °F 987.7 in WSW 13.0 mph 13.0 mph 71 % 0.0 in 0.0 W/m2 CLR
20:33 13.5 °F 8.3 °F 987.7 in WSW 3.7 mph   71 % 0.0 in 0.0 W/m2 CLR
20:38 13.4 °F 8.2 °F 988.0 in Calm     71 % 0.0 in 0.0 W/m2 CLR
20:43 13.3 °F 8.3 °F 988.0 in Calm     72 % 0.0 in 0.0 W/m2 CLR
20:48 13.3 °F 8.2 °F 988.0 in WNW 7.4 mph 7.4 mph 71 % 0.0 in 0.0 W/m2 CLR
20:53 13.4 °F 8.1 °F 988.4 in West 11.1 mph 11.1 mph 70 % 0.0 in 0.0 W/m2 CLR
20:58 13.5 °F 8.1 °F 988.4 in West 5.6 mph 5.6 mph 70 % 0.0 in 0.0 W/m2 CLR
21:03 13.4 °F 8.0 °F 988.7 in Calm     70 % 0.0 in 0.0 W/m2 CLR
21:08 13.5 °F 7.9 °F 989.1 in NW 18.5 mph 18.5 mph 69 % 0.0 in 0.0 W/m2 CLR
21:13 13.7 °F 8.1 °F 989.4 in NW 32.2 mph 32.2 mph 69 % 0.0 in 0.0 W/m2 CLR
21:18 13.9 °F 7.7 °F 989.4 in NW 40.7 mph 40.7 mph 66 % 0.0 in 0.0 W/m2 CLR
21:23 14.1 °F 7.6 °F 989.4 in WNW 20.4 mph 20.4 mph 65 % 0.0 in 0.0 W/m2 CLR
21:28 13.8 °F 7.6 °F 989.4 in WNW 14.8 mph 14.8 mph 66 % 0.0 in 0.0 W/m2 CLR
21:33 13.7 °F 7.5 °F 989.4 in NW 16.7 mph 16.7 mph 66 % 0.0 in 0.0 W/m2 CLR
21:38 13.7 °F 7.3 °F 989.4 in NW 16.7 mph 16.7 mph 65 % 0.0 in 0.0 W/m2 CLR
21:43 13.7 °F 7.0 °F 989.7 in NW 14.8 mph 14.8 mph 64 % 0.0 in 0.0 W/m2 CLR
21:48 13.7 °F 6.8 °F 989.7 in NW 22.2 mph 22.2 mph 63 % 0.0 in 0.0 W/m2 CLR
21:53 13.7 °F 6.6 °F 990.4 in NNW 22.2 mph 22.2 mph 62 % 0.0 in 0.0 W/m2 CLR
21:58 13.7 °F 6.3 °F 990.4 in NNW 27.8 mph 27.8 mph 61 % 0.0 in 0.0 W/m2 CLR
22:03 13.5 °F 6.1 °F 990.7 in NW 37.0 mph 37.0 mph 61 % 0.0 in 0.0 W/m2 CLR
22:08 13.7 °F 5.6 °F 990.7 in NW 33.3 mph 33.3 mph 58 % 0.0 in 0.0 W/m2 CLR
22:13 13.8 °F 5.4 °F 991.1 in WNW 33.3 mph 33.3 mph 57 % 0.0 in 0.0 W/m2 CLR
22:18 13.7 °F 5.3 °F 991.1 in NW 31.5 mph 31.5 mph 57 % 0.0 in 0.0 W/m2 CLR
22:23 13.7 °F 5.1 °F 991.1 in NW 29.6 mph 29.6 mph 56 % 0.0 in 0.0 W/m2 CLR
22:28 13.7 °F 4.8 °F 991.1 in NW 29.6 mph 29.6 mph 55 % 0.0 in 0.0 W/m2 CLR
22:33 13.6 °F 4.9 °F 991.4 in WNW 20.4 mph 20.4 mph 56 % 0.0 in 0.0 W/m2 CLR
22:38 13.6 °F 4.7 °F 991.4 in WNW 24.1 mph 24.1 mph 55 % 0.0 in 0.0 W/m2 CLR
22:43 13.5 °F 4.4 °F 991.4 in NW 29.6 mph 29.6 mph 54 % 0.0 in 0.0 W/m2 CLR
22:48 13.4 °F 4.3 °F 991.8 in WNW 24.1 mph 24.1 mph 54 % 0.0 in 0.0 W/m2 CLR
22:53 13.4 °F 4.6 °F 991.8 in NW 18.5 mph 18.5 mph 55 % 0.0 in 0.0 W/m2 CLR
22:58 13.3 °F 4.5 °F 992.1 in NW 37.0 mph 37.0 mph 55 % 0.0 in 0.0 W/m2 CLR
23:03 13.2 °F 4.4 °F 992.4 in NNW 68.5 mph 68.5 mph 55 % 0.0 in 0.0 W/m2 CLR
23:08 13.1 °F 4.4 °F 992.8 in NNW 40.7 mph 40.7 mph 56 % 0.0 in 0.0 W/m2 CLR
23:13 12.8 °F 4.3 °F 993.1 in NW 38.9 mph 38.9 mph 56 % 0.0 in 0.0 W/m2 CLR
23:18 12.6 °F 4.3 °F 993.1 in NW 40.7 mph 40.7 mph 57 % 0.0 in 0.0 W/m2 CLR
23:23 12.5 °F 4.2 °F 993.5 in NW 37.0 mph 37.0 mph 57 % 0.0 in 0.0 W/m2 CLR
23:28 12.3 °F 4.0 °F 993.5 in WNW 42.6 mph 42.6 mph 57 % 0.0 in 0.0 W/m2 CLR
23:33 12.2 °F 3.7 °F 993.8 in WNW 37.0 mph 37.0 mph 56 % 0.0 in 0.0 W/m2 CLR
23:38 12.1 °F 3.8 °F 993.8 in WNW 31.5 mph 31.5 mph 57 % 0.0 in 0.0 W/m2 CLR
23:43 11.9 °F 3.6 °F 993.8 in WNW 27.8 mph 27.8 mph 57 % 0.0 in 0.0 W/m2 CLR
23:48 11.7 °F 3.5 °F 993.8 in WNW 25.9 mph 25.9 mph 57 % 0.0 in 0.0 W/m2 CLR
23:53 11.7 °F 3.7 °F 994.1 in NW 20.4 mph 20.4 mph 58 % 0.0 in 0.0 W/m2 CLR
23:58 11.4 °F 3.4 °F 994.1 in WNW 22.2 mph 22.2 mph 58 % 0.0 in 0.0 W/m2 CLR
Lo Temps de Massalio
Compliments of Weather Underground - 1.25 mb